sensor_id;sensor_type;location;lat;lon;timestamp;pressure;altitude;pressure_sealevel;temperature
24278;BMP280;12394;42.692;23.314;2022-10-24T05:44:25;95737.38;;;12.20
24278;BMP280;12394;42.692;23.314;2022-10-24T05:46:50;95741.13;;;12.30
24278;BMP280;12394;42.692;23.314;2022-10-24T05:49:17;95734.72;;;12.38
24278;BMP280;12394;42.692;23.314;2022-10-24T05:51:42;95749.31;;;12.57
24278;BMP280;12394;42.692;23.314;2022-10-24T05:54:07;95750.78;;;12.68
24278;BMP280;12394;42.692;23.314;2022-10-24T05:56:33;95751.53;;;12.76
24278;BMP280;12394;42.692;23.314;2022-10-24T05:58:58;95762.38;;;12.85
24278;BMP280;12394;42.692;23.314;2022-10-24T06:01:23;95759.75;;;12.88
24278;BMP280;12394;42.692;23.314;2022-10-24T06:03:49;95768.69;;;13.05
24278;BMP280;12394;42.692;23.314;2022-10-24T06:06:15;95776.88;;;13.28
24278;BMP280;12394;42.692;23.314;2022-10-24T06:08:40;95769.22;;;13.59
24278;BMP280;12394;42.692;23.314;2022-10-24T06:11:09;95765.66;;;13.90
24278;BMP280;12394;42.692;23.314;2022-10-24T06:13:35;95778.03;;;14.45
24278;BMP280;12394;42.692;23.314;2022-10-24T06:16:00;95768.63;;;14.85
24278;BMP280;12394;42.692;23.314;2022-10-24T06:18:26;95753.25;;;15.13
24278;BMP280;12394;42.692;23.314;2022-10-24T06:20:52;95767.25;;;15.71
24278;BMP280;12394;42.692;23.314;2022-10-24T06:23:18;95760.28;;;16.08
24278;BMP280;12394;42.692;23.314;2022-10-24T06:25:43;95767.13;;;16.52
24278;BMP280;12394;42.692;23.314;2022-10-24T06:28:09;95774.72;;;17.32
24278;BMP280;12394;42.692;23.314;2022-10-24T06:30:38;95778.75;;;17.56
24278;BMP280;12394;42.692;23.314;2022-10-24T06:33:03;95782.50;;;18.11
24278;BMP280;12394;42.692;23.314;2022-10-24T06:35:29;95770.75;;;18.12
24278;BMP280;12394;42.692;23.314;2022-10-24T06:37:54;95785.78;;;18.80
24278;BMP280;12394;42.692;23.314;2022-10-24T06:40:20;95788.28;;;18.99
24278;BMP280;12394;42.692;23.314;2022-10-24T06:42:45;95778.44;;;19.54
24278;BMP280;12394;42.692;23.314;2022-10-24T06:45:11;95785.50;;;20.11
24278;BMP280;12394;42.692;23.314;2022-10-24T06:47:37;95802.28;;;20.33
24278;BMP280;12394;42.692;23.314;2022-10-24T06:50:03;95797.31;;;20.70
24278;BMP280;12394;42.692;23.314;2022-10-24T06:52:29;95791.69;;;20.90
24278;BMP280;12394;42.692;23.314;2022-10-24T06:54:54;95806.03;;;21.48
24278;BMP280;12394;42.692;23.314;2022-10-24T06:57:20;95806.19;;;21.54
24278;BMP280;12394;42.692;23.314;2022-10-24T06:59:45;95791.09;;;22.22
24278;BMP280;12394;42.692;23.314;2022-10-24T07:02:15;95794.31;;;22.56
24278;BMP280;12394;42.692;23.314;2022-10-24T07:04:41;95792.41;;;23.02
24278;BMP280;12394;42.692;23.314;2022-10-24T07:07:06;95788.09;;;23.05
24278;BMP280;12394;42.692;23.314;2022-10-24T07:09:31;95790.88;;;23.98
24278;BMP280;12394;42.692;23.314;2022-10-24T07:11:57;95802.16;;;24.02
24278;BMP280;12394;42.692;23.314;2022-10-24T07:14:23;95789.69;;;24.32
24278;BMP280;12394;42.692;23.314;2022-10-24T07:16:50;95794.53;;;24.66
24278;BMP280;12394;42.692;23.314;2022-10-24T07:19:16;95795.56;;;24.93
24278;BMP280;12394;42.692;23.314;2022-10-24T07:21:41;95793.19;;;25.53
24278;BMP280;12394;42.692;23.314;2022-10-24T07:24:09;95795.63;;;26.16
24278;BMP280;12394;42.692;23.314;2022-10-24T07:26:35;95793.41;;;26.49
24278;BMP280;12394;42.692;23.314;2022-10-24T07:29:01;95792.81;;;26.80
24278;BMP280;12394;42.692;23.314;2022-10-24T07:31:29;95788.91;;;27.01
24278;BMP280;12394;42.692;23.314;2022-10-24T07:33:56;95788.59;;;27.45
24278;BMP280;12394;42.692;23.314;2022-10-24T07:36:23;95784.16;;;29.01
24278;BMP280;12394;42.692;23.314;2022-10-24T07:38:52;95785.38;;;28.41
24278;BMP280;12394;42.692;23.314;2022-10-24T07:41:18;95783.16;;;28.87
24278;BMP280;12394;42.692;23.314;2022-10-24T07:43:44;95796.41;;;29.02
24278;BMP280;12394;42.692;23.314;2022-10-24T07:46:12;95793.78;;;29.24
24278;BMP280;12394;42.692;23.314;2022-10-24T07:48:38;95795.19;;;29.08
24278;BMP280;12394;42.692;23.314;2022-10-24T07:51:08;95789.91;;;29.64
24278;BMP280;12394;42.692;23.314;2022-10-24T07:53:34;95780.25;;;30.35
24278;BMP280;12394;42.692;23.314;2022-10-24T07:56:00;95779.22;;;30.44
24278;BMP280;12394;42.692;23.314;2022-10-24T07:58:26;95785.06;;;31.22
24278;BMP280;12394;42.692;23.314;2022-10-24T08:00:52;95774.81;;;31.10
24278;BMP280;12394;42.692;23.314;2022-10-24T08:03:17;95778.59;;;31.31
24278;BMP280;12394;42.692;23.314;2022-10-24T08:05:46;95780.00;;;31.43
24278;BMP280;12394;42.692;23.314;2022-10-24T08:08:12;95774.78;;;31.56
24278;BMP280;12394;42.692;23.314;2022-10-24T08:10:38;95787.81;;;32.36
24278;BMP280;12394;42.692;23.314;2022-10-24T08:13:03;95775.91;;;32.45
24278;BMP280;12394;42.692;23.314;2022-10-24T08:15:29;95767.47;;;32.91
24278;BMP280;12394;42.692;23.314;2022-10-24T08:17:55;95779.50;;;33.46
24278;BMP280;12394;42.692;23.314;2022-10-24T08:20:21;95773.38;;;33.59
24278;BMP280;12394;42.692;23.314;2022-10-24T08:22:48;95759.88;;;33.85
24278;BMP280;12394;42.692;23.314;2022-10-24T08:25:13;95767.50;;;33.74
24278;BMP280;12394;42.692;23.314;2022-10-24T08:27:41;95770.94;;;34.19
24278;BMP280;12394;42.692;23.314;2022-10-24T08:30:07;95770.50;;;34.42
24278;BMP280;12394;42.692;23.314;2022-10-24T08:32:33;95751.47;;;34.68
24278;BMP280;12394;42.692;23.314;2022-10-24T08:34:59;95761.94;;;35.32
24278;BMP280;12394;42.692;23.314;2022-10-24T08:37:25;95747.47;;;35.03
24278;BMP280;12394;42.692;23.314;2022-10-24T08:39:50;95757.31;;;35.19
24278;BMP280;12394;42.692;23.314;2022-10-24T08:42:21;95744.91;;;35.52
24278;BMP280;12394;42.692;23.314;2022-10-24T08:44:47;95750.88;;;36.56
24278;BMP280;12394;42.692;23.314;2022-10-24T08:47:28;95744.00;;;37.14
24278;BMP280;12394;42.692;23.314;2022-10-24T08:50:04;95737.06;;;38.34
24278;BMP280;12394;42.692;23.314;2022-10-24T08:55:03;95733.44;;;37.25
24278;BMP280;12394;42.692;23.314;2022-10-24T08:57:34;95717.25;;;37.96
24278;BMP280;12394;42.692;23.314;2022-10-24T09:00:07;95723.91;;;38.40
24278;BMP280;12394;42.692;23.314;2022-10-24T09:02:54;95733.31;;;37.76
24278;BMP280;12394;42.692;23.314;2022-10-24T09:05:25;95703.53;;;38.74
24278;BMP280;12394;42.692;23.314;2022-10-24T09:07:57;95730.91;;;40.05
24278;BMP280;12394;42.692;23.314;2022-10-24T09:10:45;95720.13;;;39.16
24278;BMP280;12394;42.692;23.314;2022-10-24T09:13:15;95702.69;;;39.28
24278;BMP280;12394;42.692;23.314;2022-10-24T09:15:43;95716.13;;;39.09
24278;BMP280;12394;42.692;23.314;2022-10-24T09:18:21;95712.78;;;38.38
24278;BMP280;12394;42.692;23.314;2022-10-24T09:20:48;95698.03;;;39.63
24278;BMP280;12394;42.692;23.314;2022-10-24T09:23:15;95710.16;;;37.85
24278;BMP280;12394;42.692;23.314;2022-10-24T09:25:46;95674.03;;;38.17
24278;BMP280;12394;42.692;23.314;2022-10-24T09:28:12;95710.94;;;38.56
24278;BMP280;12394;42.692;23.314;2022-10-24T09:30:38;95699.97;;;38.96
24278;BMP280;12394;42.692;23.314;2022-10-24T09:33:25;95698.31;;;38.60
24278;BMP280;12394;42.692;23.314;2022-10-24T09:35:53;95692.06;;;38.67
24278;BMP280;12394;42.692;23.314;2022-10-24T09:38:32;95696.47;;;38.63
24278;BMP280;12394;42.692;23.314;2022-10-24T09:41:01;95686.72;;;38.37
24278;BMP280;12394;42.692;23.314;2022-10-24T09:43:45;95690.06;;;38.68
24278;BMP280;12394;42.692;23.314;2022-10-24T09:46:15;95680.59;;;39.93
24278;BMP280;12394;42.692;23.314;2022-10-24T09:51:43;95682.31;;;39.14
24278;BMP280;12394;42.692;23.314;2022-10-24T09:56:47;95671.03;;;39.10
24278;BMP280;12394;42.692;23.314;2022-10-24T09:59:33;95684.53;;;40.34
24278;BMP280;12394;42.692;23.314;2022-10-24T10:04:47;95668.72;;;41.22
24278;BMP280;12394;42.692;23.314;2022-10-24T10:07:16;95669.94;;;41.02
24278;BMP280;12394;42.692;23.314;2022-10-24T10:09:52;95666.91;;;40.81
24278;BMP280;12394;42.692;23.314;2022-10-24T10:12:39;95673.63;;;40.61
24278;BMP280;12394;42.692;23.314;2022-10-24T10:18:00;95662.28;;;39.78
24278;BMP280;12394;42.692;23.314;2022-10-24T10:20:41;95654.47;;;40.70
24278;BMP280;12394;42.692;23.314;2022-10-24T10:23:23;95653.56;;;40.68
24278;BMP280;12394;42.692;23.314;2022-10-24T10:26:11;95653.19;;;40.81
24278;BMP280;12394;42.692;23.314;2022-10-24T10:31:27;95646.56;;;39.96
24278;BMP280;12394;42.692;23.314;2022-10-24T10:34:10;95634.94;;;38.79
24278;BMP280;12394;42.692;23.314;2022-10-24T10:53:50;95616.31;;;35.66
24278;BMP280;12394;42.692;23.314;2022-10-24T10:56:48;95608.81;;;35.88
24278;BMP280;12394;42.692;23.314;2022-10-24T11:07:25;95593.00;;;32.89
24278;BMP280;12394;42.692;23.314;2022-10-24T11:09:57;95587.03;;;32.58
24278;BMP280;12394;42.692;23.314;2022-10-24T11:12:28;95585.13;;;31.78
24278;BMP280;12394;42.692;23.314;2022-10-24T11:15:03;95586.72;;;31.20
24278;BMP280;12394;42.692;23.314;2022-10-24T11:17:36;95576.22;;;30.45
24278;BMP280;12394;42.692;23.314;2022-10-24T11:20:30;95573.38;;;30.21
24278;BMP280;12394;42.692;23.314;2022-10-24T11:23:21;95573.28;;;29.97
24278;BMP280;12394;42.692;23.314;2022-10-24T11:25:56;95580.44;;;29.78
24278;BMP280;12394;42.692;23.314;2022-10-24T11:31:25;95564.66;;;29.30
24278;BMP280;12394;42.692;23.314;2022-10-24T11:34:13;95557.31;;;29.02
24278;BMP280;12394;42.692;23.314;2022-10-24T11:36:45;95558.09;;;28.75
24278;BMP280;12394;42.692;23.314;2022-10-24T11:39:28;95545.56;;;28.61
24278;BMP280;12394;42.692;23.314;2022-10-24T11:42:00;95539.91;;;28.31
24278;BMP280;12394;42.692;23.314;2022-10-24T11:44:57;95531.72;;;27.92
24278;BMP280;12394;42.692;23.314;2022-10-24T11:49:59;95513.25;;;27.52
24278;BMP280;12394;42.692;23.314;2022-10-24T11:52:34;95532.56;;;27.56
24278;BMP280;12394;42.692;23.314;2022-10-24T11:55:17;95533.56;;;27.53
24278;BMP280;12394;42.692;23.314;2022-10-24T11:57:49;95529.13;;;27.50
24278;BMP280;12394;42.692;23.314;2022-10-24T12:00:22;95523.22;;;27.46
24278;BMP280;12394;42.692;23.314;2022-10-24T12:05:28;95518.78;;;27.37
24278;BMP280;12394;42.692;23.314;2022-10-24T12:16:44;95516.28;;;26.85
24278;BMP280;12394;42.692;23.314;2022-10-24T12:19:17;95506.44;;;26.77
24278;BMP280;12394;42.692;23.314;2022-10-24T12:21:49;95510.44;;;26.55
24278;BMP280;12394;42.692;23.314;2022-10-24T12:24:21;95507.06;;;26.61
24278;BMP280;12394;42.692;23.314;2022-10-24T12:27:00;95499.75;;;26.61
24278;BMP280;12394;42.692;23.314;2022-10-24T12:29:28;95504.78;;;26.53
24278;BMP280;12394;42.692;23.314;2022-10-24T12:31:57;95493.81;;;26.26
24278;BMP280;12394;42.692;23.314;2022-10-24T12:39:48;95486.19;;;26.19
24278;BMP280;12394;42.692;23.314;2022-10-24T12:49:58;95487.25;;;26.27
24278;BMP280;12394;42.692;23.314;2022-10-24T12:55:59;95484.91;;;26.34
24278;BMP280;12394;42.692;23.314;2022-10-24T12:58:24;95485.06;;;26.25
24278;BMP280;12394;42.692;23.314;2022-10-24T13:01:04;95486.56;;;26.06
24278;BMP280;12394;42.692;23.314;2022-10-24T13:06:35;95473.69;;;26.10
24278;BMP280;12394;42.692;23.314;2022-10-24T13:20:18;95467.81;;;25.80
24278;BMP280;12394;42.692;23.314;2022-10-24T13:22:45;95457.94;;;25.72
24278;BMP280;12394;42.692;23.314;2022-10-24T13:25:18;95463.44;;;25.62
24278;BMP280;12394;42.692;23.314;2022-10-24T13:27:44;95474.75;;;25.72
24278;BMP280;12394;42.692;23.314;2022-10-24T13:30:25;95473.63;;;25.79
24278;BMP280;12394;42.692;23.314;2022-10-24T13:38:33;95469.28;;;25.61
24278;BMP280;12394;42.692;23.314;2022-10-24T13:41:07;95463.56;;;25.53
24278;BMP280;12394;42.692;23.314;2022-10-24T13:43:37;95469.81;;;25.65
24278;BMP280;12394;42.692;23.314;2022-10-24T13:46:08;95476.56;;;25.81
24278;BMP280;12394;42.692;23.314;2022-10-24T13:48:38;95462.91;;;25.79
24278;BMP280;12394;42.692;23.314;2022-10-24T13:51:35;95468.09;;;25.88
24278;BMP280;12394;42.692;23.314;2022-10-24T13:54:14;95459.06;;;25.85
24278;BMP280;12394;42.692;23.314;2022-10-24T13:56:42;95459.03;;;25.80
24278;BMP280;12394;42.692;23.314;2022-10-24T13:59:29;95456.06;;;25.78
24278;BMP280;12394;42.692;23.314;2022-10-24T14:01:57;95452.69;;;25.83
24278;BMP280;12394;42.692;23.314;2022-10-24T14:04:25;95434.25;;;25.64
24278;BMP280;12394;42.692;23.314;2022-10-24T14:06:51;95447.97;;;25.72
24278;BMP280;12394;42.692;23.314;2022-10-24T14:09:17;95443.75;;;25.65
24278;BMP280;12394;42.692;23.314;2022-10-24T14:11:45;95450.47;;;25.55
24278;BMP280;12394;42.692;23.314;2022-10-24T14:14:29;95436.63;;;25.57
24278;BMP280;12394;42.692;23.314;2022-10-24T14:17:04;95439.19;;;25.51
24278;BMP280;12394;42.692;23.314;2022-10-24T14:19:30;95420.44;;;25.31
24278;BMP280;12394;42.692;23.314;2022-10-24T14:21:58;95449.53;;;25.38
24278;BMP280;12394;42.692;23.314;2022-10-24T14:24:24;95432.13;;;25.28
24278;BMP280;12394;42.692;23.314;2022-10-24T14:26:50;95448.50;;;25.36
24278;BMP280;12394;42.692;23.314;2022-10-24T14:29:27;95449.31;;;25.21
24278;BMP280;12394;42.692;23.314;2022-10-24T14:32:06;95432.22;;;24.99
24278;BMP280;12394;42.692;23.314;2022-10-24T14:34:33;95451.75;;;24.85
24278;BMP280;12394;42.692;23.314;2022-10-24T14:37:07;95435.09;;;24.60
24278;BMP280;12394;42.692;23.314;2022-10-24T14:39:37;95441.94;;;24.61
24278;BMP280;12394;42.692;23.314;2022-10-24T14:42:03;95428.69;;;24.52
24278;BMP280;12394;42.692;23.314;2022-10-24T14:44:29;95436.31;;;24.45
24278;BMP280;12394;42.692;23.314;2022-10-24T14:47:13;95440.13;;;24.38
24278;BMP280;12394;42.692;23.314;2022-10-24T14:49:42;95423.66;;;24.25
24278;BMP280;12394;42.692;23.314;2022-10-24T14:52:10;95434.13;;;23.99
24278;BMP280;12394;42.692;23.314;2022-10-24T14:54:36;95435.50;;;23.94
24278;BMP280;12394;42.692;23.314;2022-10-24T14:57:04;95437.19;;;23.92
24278;BMP280;12394;42.692;23.314;2022-10-24T14:59:34;95431.91;;;23.83
24278;BMP280;12394;42.692;23.314;2022-10-24T15:02:04;95430.34;;;23.76
24278;BMP280;12394;42.692;23.314;2022-10-24T15:04:40;95434.00;;;23.64
24278;BMP280;12394;42.692;23.314;2022-10-24T15:17:42;95420.19;;;23.03
24278;BMP280;12394;42.692;23.314;2022-10-24T15:20:12;95428.00;;;22.92
24278;BMP280;12394;42.692;23.314;2022-10-24T15:22:39;95430.09;;;22.88
24278;BMP280;12394;42.692;23.314;2022-10-24T15:25:20;95433.38;;;22.83
24278;BMP280;12394;42.692;23.314;2022-10-24T15:27:47;95420.09;;;22.65
24278;BMP280;12394;42.692;23.314;2022-10-24T15:30:16;95434.66;;;22.55
24278;BMP280;12394;42.692;23.314;2022-10-24T15:32:43;95435.91;;;22.45
24278;BMP280;12394;42.692;23.314;2022-10-24T15:35:08;95435.81;;;22.30
24278;BMP280;12394;42.692;23.314;2022-10-24T15:37:34;95434.53;;;22.16
24278;BMP280;12394;42.692;23.314;2022-10-24T15:40:06;95425.84;;;21.98
24278;BMP280;12394;42.692;23.314;2022-10-24T15:42:36;95439.16;;;21.89
24278;BMP280;12394;42.692;23.314;2022-10-24T15:45:02;95441.38;;;21.81
24278;BMP280;12394;42.692;23.314;2022-10-24T15:47:27;95446.84;;;21.68
24278;BMP280;12394;42.692;23.314;2022-10-24T15:49:53;95450.88;;;21.55
24278;BMP280;12394;42.692;23.314;2022-10-24T15:52:18;95440.22;;;21.46
24278;BMP280;12394;42.692;23.314;2022-10-24T15:54:44;95431.47;;;21.27
24278;BMP280;12394;42.692;23.314;2022-10-24T15:57:12;95439.59;;;21.14
24278;BMP280;12394;42.692;23.314;2022-10-24T15:59:39;95436.00;;;20.99
24278;BMP280;12394;42.692;23.314;2022-10-24T16:02:14;95431.97;;;20.85
24278;BMP280;12394;42.692;23.314;2022-10-24T16:04:40;95448.50;;;20.80
24278;BMP280;12394;42.692;23.314;2022-10-24T16:07:07;95439.06;;;20.70
24278;BMP280;12394;42.692;23.314;2022-10-24T16:09:33;95443.59;;;20.61
24278;BMP280;12394;42.692;23.314;2022-10-24T16:11:58;95449.81;;;20.58
24278;BMP280;12394;42.692;23.314;2022-10-24T16:14:24;95440.09;;;20.33
24278;BMP280;12394;42.692;23.314;2022-10-24T16:16:54;95441.94;;;20.23
24278;BMP280;12394;42.692;23.314;2022-10-24T16:19:20;95436.75;;;20.20
24278;BMP280;12394;42.692;23.314;2022-10-24T16:21:45;95451.59;;;20.08
24278;BMP280;12394;42.692;23.314;2022-10-24T16:24:11;95460.56;;;20.02
24278;BMP280;12394;42.692;23.314;2022-10-24T16:26:38;95439.50;;;19.85
24278;BMP280;12394;42.692;23.314;2022-10-24T16:29:04;95459.34;;;19.93
24278;BMP280;12394;42.692;23.314;2022-10-24T16:31:30;95457.13;;;19.70
24278;BMP280;12394;42.692;23.314;2022-10-24T16:33:56;95452.97;;;19.69
24278;BMP280;12394;42.692;23.314;2022-10-24T16:36:22;95442.72;;;19.59
24278;BMP280;12394;42.692;23.314;2022-10-24T16:38:49;95445.00;;;19.47
24278;BMP280;12394;42.692;23.314;2022-10-24T16:41:16;95463.88;;;19.49
24278;BMP280;12394;42.692;23.314;2022-10-24T16:43:42;95457.09;;;19.36
24278;BMP280;12394;42.692;23.314;2022-10-24T16:46:12;95456.69;;;19.03
24278;BMP280;12394;42.692;23.314;2022-10-24T16:48:38;95461.75;;;19.10
24278;BMP280;12394;42.692;23.314;2022-10-24T16:51:11;95464.59;;;19.16
24278;BMP280;12394;42.692;23.314;2022-10-24T16:53:37;95463.53;;;19.13
24278;BMP280;12394;42.692;23.314;2022-10-24T16:56:03;95452.00;;;19.07
24278;BMP280;12394;42.692;23.314;2022-10-24T16:58:28;95461.19;;;19.15
24278;BMP280;12394;42.692;23.314;2022-10-24T17:01:00;95440.84;;;18.99
24278;BMP280;12394;42.692;23.314;2022-10-24T17:03:27;95454.66;;;19.07
24278;BMP280;12394;42.692;23.314;2022-10-24T17:05:52;95462.28;;;19.05
24278;BMP280;12394;42.692;23.314;2022-10-24T17:08:17;95463.56;;;19.00
24278;BMP280;12394;42.692;23.314;2022-10-24T17:10:43;95464.72;;;18.99
24278;BMP280;12394;42.692;23.314;2022-10-24T17:13:08;95468.97;;;18.97
24278;BMP280;12394;42.692;23.314;2022-10-24T17:15:33;95463.16;;;18.89
24278;BMP280;12394;42.692;23.314;2022-10-24T17:17:59;95471.66;;;18.84
24278;BMP280;12394;42.692;23.314;2022-10-24T17:20:24;95462.41;;;18.76
24278;BMP280;12394;42.692;23.314;2022-10-24T17:22:50;95459.03;;;18.63
24278;BMP280;12394;42.692;23.314;2022-10-24T17:25:21;95465.41;;;18.65
24278;BMP280;12394;42.692;23.314;2022-10-24T17:27:47;95464.16;;;18.57
24278;BMP280;12394;42.692;23.314;2022-10-24T17:30:19;95470.66;;;18.40
24278;BMP280;12394;42.692;23.314;2022-10-24T17:32:45;95454.53;;;18.22
24278;BMP280;12394;42.692;23.314;2022-10-24T17:35:13;95460.41;;;18.30
24278;BMP280;12394;42.692;23.314;2022-10-24T17:37:46;95468.22;;;18.20
24278;BMP280;12394;42.692;23.314;2022-10-24T17:40:18;95453.16;;;18.17
24278;BMP280;12394;42.692;23.314;2022-10-24T17:42:44;95472.78;;;18.20
24278;BMP280;12394;42.692;23.314;2022-10-24T17:45:18;95470.31;;;18.13
24278;BMP280;12394;42.692;23.314;2022-10-24T17:47:45;95483.03;;;18.18
24278;BMP280;12394;42.692;23.314;2022-10-24T17:50:11;95481.97;;;18.15
24278;BMP280;12394;42.692;23.314;2022-10-24T17:52:37;95477.47;;;17.87
24278;BMP280;12394;42.692;23.314;2022-10-24T17:55:21;95477.31;;;17.78
24278;BMP280;12394;42.692;23.314;2022-10-24T17:57:47;95468.84;;;17.70
24278;BMP280;12394;42.692;23.314;2022-10-24T18:00:13;95459.28;;;17.60
24278;BMP280;12394;42.692;23.314;2022-10-24T18:02:46;95469.34;;;17.65
24278;BMP280;12394;42.692;23.314;2022-10-24T18:05:11;95467.97;;;17.61
24278;BMP280;12394;42.692;23.314;2022-10-24T18:07:37;95463.41;;;17.45
24278;BMP280;12394;42.692;23.314;2022-10-24T18:10:03;95450.50;;;17.47
24278;BMP280;12394;42.692;23.314;2022-10-24T18:12:31;95458.53;;;17.60
24278;BMP280;12394;42.692;23.314;2022-10-24T18:14:58;95465.88;;;17.52
24278;BMP280;12394;42.692;23.314;2022-10-24T18:17:24;95460.91;;;17.54
24278;BMP280;12394;42.692;23.314;2022-10-24T18:19:49;95468.84;;;17.54
24278;BMP280;12394;42.692;23.314;2022-10-24T18:22:14;95469.94;;;17.57
24278;BMP280;12394;42.692;23.314;2022-10-24T18:24:40;95466.84;;;17.29
24278;BMP280;12394;42.692;23.314;2022-10-24T18:27:05;95473.38;;;17.25
24278;BMP280;12394;42.692;23.314;2022-10-24T18:29:31;95467.25;;;17.28
24278;BMP280;12394;42.692;23.314;2022-10-24T18:31:56;95463.84;;;17.27
24278;BMP280;12394;42.692;23.314;2022-10-24T18:34:21;95463.19;;;17.23
24278;BMP280;12394;42.692;23.314;2022-10-24T18:36:47;95471.53;;;17.22
24278;BMP280;12394;42.692;23.314;2022-10-24T18:39:12;95462.56;;;17.19
24278;BMP280;12394;42.692;23.314;2022-10-24T18:41:44;95442.09;;;17.07
24278;BMP280;12394;42.692;23.314;2022-10-24T18:46:45;95468.59;;;17.04
24278;BMP280;12394;42.692;23.314;2022-10-24T18:49:11;95464.69;;;17.08
24278;BMP280;12394;42.692;23.314;2022-10-24T18:54:06;95463.81;;;16.99
24278;BMP280;12394;42.692;23.314;2022-10-24T18:56:33;95472.91;;;16.98
24278;BMP280;12394;42.692;23.314;2022-10-24T18:58:58;95456.38;;;16.94
24278;BMP280;12394;42.692;23.314;2022-10-24T19:01:41;95461.25;;;16.79
24278;BMP280;12394;42.692;23.314;2022-10-24T19:04:19;95430.56;;;16.49
24278;BMP280;12394;42.692;23.314;2022-10-24T19:06:47;95447.41;;;16.55
24278;BMP280;12394;42.692;23.314;2022-10-24T19:09:18;95465.44;;;16.60
24278;BMP280;12394;42.692;23.314;2022-10-24T19:11:44;95471.38;;;16.64
24278;BMP280;12394;42.692;23.314;2022-10-24T19:14:10;95471.38;;;16.64
24278;BMP280;12394;42.692;23.314;2022-10-24T19:16:36;95457.31;;;16.51
24278;BMP280;12394;42.692;23.314;2022-10-24T19:19:02;95468.84;;;16.61
24278;BMP280;12394;42.692;23.314;2022-10-24T19:21:28;95442.91;;;16.36
24278;BMP280;12394;42.692;23.314;2022-10-24T19:23:53;95463.88;;;16.27
24278;BMP280;12394;42.692;23.314;2022-10-24T19:26:19;95458.00;;;16.19
24278;BMP280;12394;42.692;23.314;2022-10-24T19:28:44;95467.16;;;16.31
24278;BMP280;12394;42.692;23.314;2022-10-24T19:31:10;95475.88;;;16.12
24278;BMP280;12394;42.692;23.314;2022-10-24T19:33:39;95475.97;;;15.88
24278;BMP280;12394;42.692;23.314;2022-10-24T19:36:06;95475.34;;;15.81
24278;BMP280;12394;42.692;23.314;2022-10-24T19:38:32;95463.50;;;15.89
24278;BMP280;12394;42.692;23.314;2022-10-24T19:40:57;95475.94;;;16.08
24278;BMP280;12394;42.692;23.314;2022-10-24T19:43:25;95460.25;;;16.01
24278;BMP280;12394;42.692;23.314;2022-10-24T19:45:53;95468.84;;;16.05
24278;BMP280;12394;42.692;23.314;2022-10-24T19:48:23;95472.19;;;15.89
24278;BMP280;12394;42.692;23.314;2022-10-24T19:50:49;95483.59;;;16.02
24278;BMP280;12394;42.692;23.314;2022-10-24T19:53:16;95480.63;;;16.00
24278;BMP280;12394;42.692;23.314;2022-10-24T19:55:42;95477.16;;;16.03
24278;BMP280;12394;42.692;23.314;2022-10-24T19:58:08;95469.75;;;15.98
24278;BMP280;12394;42.692;23.314;2022-10-24T20:00:34;95479.13;;;15.99
24278;BMP280;12394;42.692;23.314;2022-10-24T20:03:00;95472.69;;;16.00
24278;BMP280;12394;42.692;23.314;2022-10-24T20:05:25;95473.53;;;15.97
24278;BMP280;12394;42.692;23.314;2022-10-24T20:07:50;95473.78;;;15.83
24278;BMP280;12394;42.692;23.314;2022-10-24T20:10:16;95472.09;;;15.53
24278;BMP280;12394;42.692;23.314;2022-10-24T20:12:41;95476.38;;;15.44
24278;BMP280;12394;42.692;23.314;2022-10-24T20:15:07;95472.81;;;15.54
24278;BMP280;12394;42.692;23.314;2022-10-24T20:17:34;95475.72;;;15.60
24278;BMP280;12394;42.692;23.314;2022-10-24T20:19:59;95467.06;;;15.59
24278;BMP280;12394;42.692;23.314;2022-10-24T20:22:25;95474.19;;;15.62
24278;BMP280;12394;42.692;23.314;2022-10-24T20:24:50;95484.53;;;15.53
24278;BMP280;12394;42.692;23.314;2022-10-24T20:27:15;95482.56;;;15.57
24278;BMP280;12394;42.692;23.314;2022-10-24T20:29:42;95484.19;;;15.51
24278;BMP280;12394;42.692;23.314;2022-10-24T20:32:08;95482.44;;;15.41
24278;BMP280;12394;42.692;23.314;2022-10-24T20:34:33;95492.66;;;15.39
24278;BMP280;12394;42.692;23.314;2022-10-24T20:36:59;95496.09;;;15.12
24278;BMP280;12394;42.692;23.314;2022-10-24T20:39:24;95494.84;;;14.97
24278;BMP280;12394;42.692;23.314;2022-10-24T20:41:50;95497.16;;;14.92
24278;BMP280;12394;42.692;23.314;2022-10-24T20:44:16;95503.31;;;14.85
24278;BMP280;12394;42.692;23.314;2022-10-24T20:46:41;95488.19;;;14.89
24278;BMP280;12394;42.692;23.314;2022-10-24T20:49:07;95494.84;;;14.97
24278;BMP280;12394;42.692;23.314;2022-10-24T20:51:32;95482.41;;;14.98
24278;BMP280;12394;42.692;23.314;2022-10-24T20:53:58;95494.25;;;15.09
24278;BMP280;12394;42.692;23.314;2022-10-24T20:56:24;95499.13;;;15.11
24278;BMP280;12394;42.692;23.314;2022-10-24T20:58:50;95472.88;;;15.04
24278;BMP280;12394;42.692;23.314;2022-10-24T21:01:22;95485.97;;;15.11
24278;BMP280;12394;42.692;23.314;2022-10-24T21:03:50;95480.66;;;14.88
24278;BMP280;12394;42.692;23.314;2022-10-24T21:06:19;95464.91;;;14.61
24278;BMP280;12394;42.692;23.314;2022-10-24T21:08:46;95485.91;;;14.64
24278;BMP280;12394;42.692;23.314;2022-10-24T21:11:13;95477.84;;;14.75
24278;BMP280;12394;42.692;23.314;2022-10-24T21:13:41;95492.03;;;14.58
24278;BMP280;12394;42.692;23.314;2022-10-24T21:16:06;95492.16;;;14.47
24278;BMP280;12394;42.692;23.314;2022-10-24T21:18:32;95491.53;;;14.40
24278;BMP280;12394;42.692;23.314;2022-10-24T21:20:57;95499.47;;;14.33
24278;BMP280;12394;42.692;23.314;2022-10-24T21:23:23;95488.94;;;14.33
24278;BMP280;12394;42.692;23.314;2022-10-24T21:25:48;95487.16;;;14.26
24278;BMP280;12394;42.692;23.314;2022-10-24T21:28:13;95478.59;;;14.18
24278;BMP280;12394;42.692;23.314;2022-10-24T21:30:39;95485.75;;;14.18
24278;BMP280;12394;42.692;23.314;2022-10-24T21:33:04;95482.34;;;14.17
24278;BMP280;12394;42.692;23.314;2022-10-24T21:35:33;95470.25;;;14.23
24278;BMP280;12394;42.692;23.314;2022-10-24T21:37:58;95489.81;;;14.22
24278;BMP280;12394;42.692;23.314;2022-10-24T21:40:23;95451.53;;;13.88